Time;durP1;ratioP1;P1;durP2;ratioP2;P2;SDS_P1;SDS_P2;PMS_P1;PMS_P2;Temp;Humidity;BMP_temperature;BMP_pressure;BME280_temperature;BME280_humidity;BME280_pressure;Samples;Min_cycle;Max_cycle;Signal;HPM_P1;HPM_P2
2023/03/06 00:00:31;;;;;;;14.65;9.75;;;5.10;99.90;;;;;;5020526;28;20107;-52
2023/03/06 00:02:56;;;;;;;13.30;9.63;;;5.10;99.90;;;;;;5024964;28;20034;-51
2023/03/06 00:05:22;;;;;;;16.83;9.73;;;5.00;99.90;;;;;;5022525;28;20056;-51
2023/03/06 00:07:48;;;;;;;19.75;10.43;;;5.10;99.90;;;;;;5022870;28;20484;-52
2023/03/06 00:10:22;;;;;;;14.25;10.38;;;5.10;99.90;;;;;;5019824;28;20045;-51
2023/03/06 00:12:51;;;;;;;16.75;10.23;;;5.20;99.90;;;;;;5031234;28;20044;-52
2023/03/06 00:15:17;;;;;;;16.70;10.85;;;5.00;99.90;;;;;;5029801;28;20393;-52
2023/03/06 00:17:42;;;;;;;19.27;11.30;;;4.90;99.90;;;;;;5021627;28;20040;-52
2023/03/06 00:20:10;;;;;;;18.30;11.50;;;4.90;99.90;;;;;;5027673;28;20058;-52
2023/03/06 00:22:36;;;;;;;14.45;10.70;;;4.80;99.90;;;;;;5025110;28;20041;-52
2023/03/06 00:25:03;;;;;;;16.13;11.05;;;4.90;99.90;;;;;;5040452;28;20484;-52
2023/03/06 00:27:30;;;;;;;14.18;10.95;;;5.00;99.90;;;;;;5033428;28;20112;-51
2023/03/06 00:29:56;;;;;;;15.73;10.45;;;5.00;99.90;;;;;;5035902;28;20047;-50
2023/03/06 00:32:22;;;;;;;17.35;12.07;;;5.10;99.90;;;;;;5030794;28;20154;-52
2023/03/06 00:34:49;;;;;;;15.93;12.07;;;4.90;99.90;;;;;;5023840;28;20034;-48
2023/03/06 00:37:15;;;;;;;15.18;11.25;;;5.10;99.90;;;;;;5031753;28;20368;-51
2023/03/06 00:39:40;;;;;;;16.83;11.82;;;5.10;99.90;;;;;;5042161;28;20467;-49
2023/03/06 00:42:06;;;;;;;20.55;12.95;;;5.10;99.90;;;;;;5023079;28;20037;-49
2023/03/06 00:44:31;;;;;;;15.55;11.52;;;5.10;99.90;;;;;;5024686;28;20041;-51
2023/03/06 00:46:57;;;;;;;17.48;11.80;;;4.90;99.90;;;;;;5016134;28;20456;-49
2023/03/06 00:49:22;;;;;;;18.52;11.95;;;5.00;99.90;;;;;;5022905;28;20029;-52
2023/03/06 00:51:48;;;;;;;17.40;12.43;;;4.90;99.90;;;;;;5023262;28;20091;-52
2023/03/06 00:54:14;;;;;;;17.23;12.23;;;4.80;99.90;;;;;;5022341;28;20029;-50
2023/03/06 00:56:39;;;;;;;18.77;12.00;;;4.90;99.90;;;;;;5020163;28;20069;-53
2023/03/06 00:59:05;;;;;;;19.58;11.60;;;4.90;99.90;;;;;;5030040;28;20135;-52
2023/03/06 01:01:30;;;;;;;19.50;13.20;;;4.90;99.90;;;;;;5019817;28;20454;-52
2023/03/06 01:03:56;;;;;;;20.65;13.85;;;5.00;99.90;;;;;;5022327;28;20046;-51
2023/03/06 01:06:22;;;;;;;23.35;15.00;;;4.90;99.90;;;;;;5020825;28;20121;-51
2023/03/06 01:08:47;;;;;;;29.77;16.48;;;4.90;99.90;;;;;;5026100;28;20076;-51
2023/03/06 01:11:13;;;;;;;23.90;16.27;;;5.00;99.90;;;;;;5044097;28;20120;-51
2023/03/06 01:13:39;;;;;;;25.85;15.90;;;5.00;99.90;;;;;;5026208;28;20132;-52
2023/03/06 01:16:10;;;;;;;25.17;17.10;;;5.00;99.90;;;;;;5043114;28;20083;-52
2023/03/06 01:18:36;;;;;;;26.20;16.52;;;4.90;99.90;;;;;;5047424;28;20551;-52
2023/03/06 01:21:03;;;;;;;35.45;18.42;;;5.00;99.90;;;;;;5038999;28;20065;-51
2023/03/06 01:23:29;;;;;;;27.80;18.35;;;4.90;99.90;;;;;;5036146;28;20392;-51
2023/03/06 01:25:54;;;;;;;28.98;18.75;;;5.00;99.90;;;;;;5029460;28;20049;-51
2023/03/06 01:28:20;;;;;;;31.63;19.83;;;4.90;99.90;;;;;;5046313;28;20041;-51
2023/03/06 01:30:46;;;;;;;33.47;20.13;;;4.80;99.90;;;;;;5030096;28;20120;-53
2023/03/06 01:33:11;;;;;;;30.20;20.58;;;4.70;99.90;;;;;;5044154;28;20040;-52
2023/03/06 01:35:38;;;;;;;28.95;20.42;;;4.60;99.90;;;;;;5020399;28;20045;-51
2023/03/06 01:38:03;;;;;;;32.08;20.73;;;4.70;99.90;;;;;;5042392;28;20275;-49
2023/03/06 01:40:33;;;;;;;31.65;20.40;;;4.80;99.90;;;;;;5022759;28;20094;-51
2023/03/06 01:43:09;;;;;;;32.17;21.58;;;4.80;99.90;;;;;;5018924;28;20242;-52
2023/03/06 01:45:34;;;;;;;30.63;20.38;;;4.70;99.90;;;;;;5039365;28;20324;-50
2023/03/06 01:48:00;;;;;;;34.42;20.75;;;4.80;99.90;;;;;;5029194;28;20465;-50
2023/03/06 01:50:26;;;;;;;32.67;21.63;;;5.00;99.90;;;;;;5044626;28;20044;-51
2023/03/06 01:52:55;;;;;;;33.72;21.70;;;4.70;99.90;;;;;;5037918;28;20072;-51
2023/03/06 01:55:32;;;;;;;35.42;21.80;;;4.90;99.90;;;;;;5044550;28;20115;-52
2023/03/06 01:58:02;;;;;;;31.88;21.00;;;4.80;99.90;;;;;;5045616;28;20786;-52
2023/03/06 02:00:29;;;;;;;34.53;21.63;;;4.80;99.90;;;;;;5040282;28;20029;-52
2023/03/06 02:03:03;;;;;;;36.30;21.17;;;4.80;99.90;;;;;;5039715;28;20377;-52
2023/03/06 02:05:29;;;;;;;35.33;20.98;;;4.80;99.90;;;;;;5043951;28;20075;-53
2023/03/06 02:07:56;;;;;;;36.38;22.15;;;4.40;99.90;;;;;;5044525;28;20072;-52
2023/03/06 02:10:21;;;;;;;34.92;20.88;;;4.50;99.90;;;;;;5045675;28;20543;-51
2023/03/06 02:12:49;;;;;;;34.67;21.88;;;4.50;99.90;;;;;;5026290;28;20067;-50
2023/03/06 02:15:18;;;;;;;37.67;22.50;;;4.50;99.90;;;;;;5045778;28;20030;-53
2023/03/06 02:17:47;;;;;;;34.50;21.77;;;4.50;99.90;;;;;;5043786;28;20045;-52
2023/03/06 02:20:24;;;;;;;33.65;22.35;;;4.60;99.90;;;;;;5046142;28;20033;-51
2023/03/06 02:23:08;;;;;;;34.40;22.77;;;4.60;99.90;;;;;;5042351;28;20174;-51
2023/03/06 02:25:47;;;;;;;31.58;22.58;;;4.30;99.90;;;;;;5037687;28;20045;-53
2023/03/06 02:28:16;;;;;;;34.97;23.30;;;4.20;99.90;;;;;;5042678;28;20037;-50
2023/03/06 02:30:43;;;;;;;35.05;23.35;;;4.20;99.90;;;;;;5042764;28;20067;-51
2023/03/06 02:33:18;;;;;;;34.67;23.35;;;4.20;99.90;;;;;;5045035;28;20032;-48
2023/03/06 02:35:52;;;;;;;36.38;23.48;;;4.10;99.90;;;;;;5042708;28;20549;-51
2023/03/06 02:38:20;;;;;;;37.20;22.25;;;4.20;99.90;;;;;;5042215;28;20033;-51
2023/03/06 02:40:49;;;;;;;33.38;22.70;;;4.10;99.90;;;;;;5043550;28;20037;-50
2023/03/06 02:43:18;;;;;;;36.85;24.00;;;4.10;99.90;;;;;;5036501;28;20649;-51
2023/03/06 02:45:47;;;;;;;33.97;23.42;;;4.10;99.90;;;;;;5039018;28;20089;-49
2023/03/06 02:48:13;;;;;;;35.63;23.55;;;4.00;99.90;;;;;;5044377;28;20029;-51
2023/03/06 02:50:40;;;;;;;33.60;22.25;;;4.10;99.90;;;;;;5044953;28;20401;-51
2023/03/06 02:53:07;;;;;;;37.50;23.80;;;4.00;99.90;;;;;;5044584;28;20041;-50
2023/03/06 02:55:32;;;;;;;37.78;23.20;;;4.10;99.90;;;;;;5043193;28;20559;-49
2023/03/06 02:57:58;;;;;;;38.55;23.63;;;4.10;99.90;;;;;;5044192;28;20120;-51
2023/03/06 03:00:24;;;;;;;34.70;22.70;;;4.10;99.90;;;;;;5047292;28;20046;-52
2023/03/06 03:02:49;;;;;;;38.60;23.30;;;4.10;99.90;;;;;;5043087;28;20294;-49
2023/03/06 03:05:15;;;;;;;36.70;22.52;;;4.10;99.90;;;;;;5042922;28;20049;-52
2023/03/06 03:07:41;;;;;;;35.22;22.65;;;4.20;99.90;;;;;;5043123;28;20083;-49
2023/03/06 03:10:07;;;;;;;34.47;21.95;;;4.20;99.90;;;;;;5044178;28;20033;-52
2023/03/06 03:12:33;;;;;;;36.55;23.67;;;4.30;99.90;;;;;;5036057;28;20124;-50
2023/03/06 03:14:59;;;;;;;37.97;22.88;;;4.40;99.90;;;;;;5040298;28;20542;-50
2023/03/06 03:17:24;;;;;;;34.03;21.95;;;4.50;99.90;;;;;;5043861;28;20040;-50
2023/03/06 03:19:50;;;;;;;33.60;21.83;;;4.40;99.90;;;;;;5031601;28;20032;-51
2023/03/06 03:22:16;;;;;;;37.55;21.98;;;4.50;99.90;;;;;;5026181;28;20123;-50
2023/03/06 03:24:42;;;;;;;34.05;21.02;;;4.50;99.90;;;;;;5035661;28;20033;-51
2023/03/06 03:27:09;;;;;;;34.20;20.98;;;4.60;99.90;;;;;;5033652;28;20554;-53
2023/03/06 03:29:34;;;;;;;31.02;20.98;;;4.70;99.90;;;;;;5035700;28;20043;-53
2023/03/06 03:32:00;;;;;;;31.25;20.40;;;4.60;99.90;;;;;;5041985;28;20029;-51
2023/03/06 03:34:25;;;;;;;33.42;21.67;;;4.50;99.90;;;;;;5040404;28;20120;-52
2023/03/06 03:36:51;;;;;;;33.35;20.98;;;4.60;99.90;;;;;;5044109;28;20132;-51
2023/03/06 03:39:17;;;;;;;29.80;20.75;;;4.60;99.90;;;;;;5040395;28;20029;-52
2023/03/06 03:41:42;;;;;;;32.05;21.27;;;4.50;99.90;;;;;;5035105;28;20044;-52
2023/03/06 03:44:09;;;;;;;33.15;20.33;;;4.40;99.90;;;;;;5032543;28;20047;-51
2023/03/06 03:46:34;;;;;;;33.15;21.35;;;4.40;99.90;;;;;;5040471;28;20048;-53
2023/03/06 03:49:00;;;;;;;33.47;21.25;;;4.40;99.90;;;;;;5043312;28;20041;-53
2023/03/06 03:51:26;;;;;;;31.98;20.98;;;4.30;99.90;;;;;;5039300;28;20064;-50
2023/03/06 03:53:51;;;;;;;30.92;19.95;;;4.20;99.90;;;;;;5050436;28;20047;-50
2023/03/06 03:56:17;;;;;;;32.42;20.63;;;4.10;99.90;;;;;;5042765;28;20033;-53
2023/03/06 03:58:43;;;;;;;37.25;20.98;;;4.10;99.90;;;;;;5018300;28;20053;-52
2023/03/06 04:01:08;;;;;;;35.65;20.58;;;4.00;99.90;;;;;;5031458;28;20765;-52
2023/03/06 04:03:34;;;;;;;31.05;19.75;;;4.10;99.90;;;;;;5042439;28;20339;-52
2023/03/06 04:06:00;;;;;;;29.55;19.00;;;3.90;99.90;;;;;;5036529;28;20050;-49
2023/03/06 04:08:26;;;;;;;30.70;19.98;;;4.00;99.90;;;;;;5036901;28;20447;-51
2023/03/06 04:10:53;;;;;;;33.00;19.63;;;3.90;99.90;;;;;;5043364;28;20287;-52
2023/03/06 04:13:20;;;;;;;32.78;18.88;;;3.80;99.90;;;;;;5040226;28;20029;-52
2023/03/06 04:15:51;;;;;;;33.97;21.08;;;3.80;99.90;;;;;;5043060;28;20052;-51
2023/03/06 04:18:18;;;;;;;31.30;20.33;;;4.00;99.90;;;;;;5043005;28;20179;-52
2023/03/06 04:20:45;;;;;;;32.63;20.17;;;3.90;99.90;;;;;;5033849;28;20033;-50
2023/03/06 04:23:11;;;;;;;33.13;19.75;;;3.90;99.90;;;;;;5037942;28;20122;-52
2023/03/06 04:25:37;;;;;;;32.80;19.75;;;3.70;99.90;;;;;;5043175;28;20048;-52
2023/03/06 04:28:04;;;;;;;33.40;19.83;;;3.70;99.90;;;;;;5025628;28;20041;-52
2023/03/06 04:30:30;;;;;;;34.22;20.95;;;3.80;99.90;;;;;;5025689;28;20056;-52
2023/03/06 04:32:56;;;;;;;34.28;20.70;;;3.80;99.90;;;;;;5024842;28;20032;-51
2023/03/06 04:35:21;;;;;;;31.38;20.30;;;3.60;99.90;;;;;;5043566;28;20052;-51
2023/03/06 04:37:47;;;;;;;31.88;21.52;;;3.50;99.90;;;;;;5035369;28;20045;-52
2023/03/06 04:40:22;;;;;;;34.60;21.60;;;3.60;99.90;;;;;;5034761;28;20030;-52
2023/03/06 04:42:48;;;;;;;35.22;21.80;;;3.50;99.90;;;;;;5038752;28;20082;-49
2023/03/06 04:45:15;;;;;;;35.17;21.50;;;3.60;99.90;;;;;;5048152;28;20463;-50
2023/03/06 04:47:41;;;;;;;35.13;21.13;;;3.70;99.90;;;;;;5046875;28;20041;-52
2023/03/06 04:50:08;;;;;;;36.00;23.13;;;3.70;99.90;;;;;;5047110;28;20504;-49
2023/03/06 04:52:33;;;;;;;36.08;22.83;;;3.80;99.90;;;;;;5033573;28;20554;-51
2023/03/06 04:54:59;;;;;;;37.75;23.27;;;3.70;99.90;;;;;;5033086;28;20033;-52
2023/03/06 04:57:24;;;;;;;38.15;22.95;;;3.60;99.90;;;;;;5037198;28;20120;-53
2023/03/06 04:59:50;;;;;;;39.47;23.48;;;3.70;99.90;;;;;;5046512;28;20976;-51
2023/03/06 05:02:16;;;;;;;35.13;21.10;;;3.80;99.90;;;;;;5046877;28;20036;-50
2023/03/06 05:04:42;;;;;;;40.20;23.25;;;3.70;99.90;;;;;;5045782;28;20044;-51
2023/03/06 05:07:09;;;;;;;39.17;21.98;;;3.70;99.90;;;;;;5038615;28;20029;-52
2023/03/06 05:09:35;;;;;;;36.70;20.50;;;3.60;99.90;;;;;;5048837;28;20033;-52
2023/03/06 05:12:01;;;;;;;36.92;22.63;;;3.60;99.90;;;;;;5044897;28;20120;-52
2023/03/06 05:14:31;;;;;;;37.58;21.67;;;3.40;99.90;;;;;;5038352;28;20029;-52
2023/03/06 05:16:56;;;;;;;37.83;22.38;;;3.50;99.90;;;;;;5047231;28;20503;-53
2023/03/06 05:19:22;;;;;;;38.80;21.33;;;3.60;99.90;;;;;;5038040;28;20064;-51
2023/03/06 05:21:47;;;;;;;38.92;21.45;;;3.50;99.90;;;;;;5046142;28;20025;-53
2023/03/06 05:24:13;;;;;;;39.90;21.00;;;3.30;99.90;;;;;;5044866;28;20120;-51
2023/03/06 05:26:39;;;;;;;35.53;20.35;;;3.50;99.90;;;;;;5041194;28;20065;-52
2023/03/06 05:29:04;;;;;;;35.30;20.25;;;3.70;99.90;;;;;;5029268;28;20521;-53
2023/03/06 05:31:30;;;;;;;33.70;19.90;;;3.80;99.90;;;;;;5040662;28;20044;-52
2023/03/06 05:33:57;;;;;;;33.78;20.20;;;3.80;99.90;;;;;;5046094;28;20033;-53
2023/03/06 05:36:22;;;;;;;38.33;19.95;;;3.90;99.90;;;;;;5043536;28;20424;-52
2023/03/06 05:38:48;;;;;;;33.78;20.05;;;3.80;99.90;;;;;;5047347;28;20040;-58
2023/03/06 05:41:14;;;;;;;34.47;19.80;;;3.90;99.90;;;;;;5039628;28;20029;-52
2023/03/06 05:43:40;;;;;;;33.83;20.23;;;3.90;99.90;;;;;;5044191;28;20382;-53
2023/03/06 05:46:06;;;;;;;39.20;21.77;;;3.80;99.90;;;;;;5045752;28;20186;-53
2023/03/06 05:48:33;;;;;;;36.95;20.17;;;3.90;99.90;;;;;;5036769;28;20048;-53
2023/03/06 05:51:00;;;;;;;40.05;21.10;;;3.80;99.90;;;;;;5040430;28;20523;-52
2023/03/06 05:53:26;;;;;;;38.78;20.77;;;4.00;99.90;;;;;;5045868;28;20072;-54
2023/03/06 05:55:57;;;;;;;36.92;20.92;;;4.00;99.90;;;;;;5045819;28;20093;-52
2023/03/06 05:58:23;;;;;;;35.75;20.88;;;3.80;99.90;;;;;;5042727;28;20094;-53
2023/03/06 06:00:48;;;;;;;33.88;20.27;;;3.80;99.90;;;;;;5048857;28;20029;-52
2023/03/06 06:03:14;;;;;;;37.97;20.55;;;3.80;99.90;;;;;;5043554;28;20029;-51
2023/03/06 06:05:39;;;;;;;35.25;20.60;;;3.80;99.90;;;;;;5051807;28;20076;-53
2023/03/06 06:08:05;;;;;;;36.70;20.73;;;3.80;99.90;;;;;;5053592;28;20029;-51
2023/03/06 06:10:31;;;;;;;32.25;19.23;;;3.80;99.90;;;;;;5054992;28;20127;-52
2023/03/06 06:12:56;;;;;;;34.72;21.10;;;3.90;99.90;;;;;;5042774;28;20396;-51
2023/03/06 06:15:22;;;;;;;39.67;21.35;;;4.10;99.90;;;;;;5041688;28;20400;-53
2023/03/06 06:17:47;;;;;;;42.72;21.73;;;4.10;99.90;;;;;;5036532;28;20401;-52
2023/03/06 06:20:13;;;;;;;44.03;23.23;;;4.10;99.90;;;;;;5041285;28;20064;-52
2023/03/06 06:22:39;;;;;;;42.28;23.23;;;4.20;99.90;;;;;;5044437;28;20041;-52
2023/03/06 06:25:05;;;;;;;39.85;21.95;;;4.30;99.90;;;;;;5037627;28;20120;-51
2023/03/06 06:27:31;;;;;;;40.38;22.63;;;4.40;99.90;;;;;;5040398;28;20041;-51
2023/03/06 06:29:56;;;;;;;47.15;24.88;;;4.20;99.90;;;;;;5043432;28;20140;-53
2023/03/06 06:32:22;;;;;;;47.72;24.15;;;4.40;99.90;;;;;;5042784;28;20447;-52
2023/03/06 06:34:47;;;;;;;42.30;23.33;;;4.30;99.90;;;;;;5044232;28;20033;-53
2023/03/06 06:37:13;;;;;;;45.97;23.77;;;4.20;99.90;;;;;;5044761;28;20302;-53
2023/03/06 06:39:39;;;;;;;41.03;23.20;;;4.10;99.90;;;;;;5044482;28;20369;-54
2023/03/06 06:42:07;;;;;;;41.17;22.90;;;4.10;99.90;;;;;;5044967;28;20029;-54
2023/03/06 06:44:32;;;;;;;43.60;23.65;;;4.20;99.90;;;;;;5041491;28;20028;-53
2023/03/06 06:46:58;;;;;;;42.90;23.85;;;4.30;99.90;;;;;;5043750;28;20041;-52
2023/03/06 06:49:24;;;;;;;41.40;21.85;;;4.40;99.90;;;;;;5042955;28;20373;-52
2023/03/06 06:51:49;;;;;;;42.13;21.95;;;4.20;99.90;;;;;;5042489;28;20037;-52
2023/03/06 06:54:15;;;;;;;44.10;24.08;;;4.20;99.90;;;;;;5036052;28;20136;-52
2023/03/06 06:56:40;;;;;;;39.22;21.35;;;4.20;99.90;;;;;;5030384;28;20499;-53
2023/03/06 06:59:06;;;;;;;39.47;21.58;;;4.30;99.90;;;;;;5042051;28;20032;-52
2023/03/06 07:01:32;;;;;;;38.67;22.13;;;4.30;99.90;;;;;;5037527;28;20202;-53
2023/03/06 07:03:57;;;;;;;42.38;21.95;;;4.30;99.90;;;;;;5045222;28;20449;-53
2023/03/06 07:06:23;;;;;;;38.08;20.08;;;4.30;99.90;;;;;;5046894;28;20048;-50
2023/03/06 07:08:48;;;;;;;38.95;21.88;;;4.50;99.90;;;;;;5045189;28;20151;-53
2023/03/06 07:11:16;;;;;;;39.97;21.33;;;4.60;99.90;;;;;;5041456;28;20114;-53
2023/03/06 07:13:43;;;;;;;38.20;21.65;;;4.50;99.90;;;;;;5043133;28;20527;-53
2023/03/06 07:16:09;;;;;;;37.80;20.45;;;4.50;99.90;;;;;;5043627;28;20115;-51
2023/03/06 07:18:34;;;;;;;40.90;21.45;;;4.40;99.90;;;;;;5043578;28;20065;-53
2023/03/06 07:21:00;;;;;;;37.45;21.45;;;4.40;99.90;;;;;;5023527;28;20037;-52
2023/03/06 07:23:26;;;;;;;36.15;21.40;;;4.40;99.90;;;;;;5044144;28;20670;-53
2023/03/06 07:25:53;;;;;;;36.97;20.88;;;4.30;99.90;;;;;;5039800;28;20206;-53
2023/03/06 07:28:19;;;;;;;37.88;20.65;;;4.30;99.90;;;;;;5048186;28;20416;-53
2023/03/06 07:30:45;;;;;;;41.10;22.73;;;4.30;99.90;;;;;;5053173;28;20673;-51
2023/03/06 07:33:11;;;;;;;39.45;20.42;;;4.20;99.90;;;;;;5037668;28;20049;-53
2023/03/06 07:35:37;;;;;;;36.72;20.75;;;4.30;99.90;;;;;;5040025;28;20511;-52
2023/03/06 07:38:02;;;;;;;36.95;21.27;;;4.40;99.90;;;;;;5039001;28;20029;-52
2023/03/06 07:40:28;;;;;;;43.08;22.70;;;4.50;99.90;;;;;;5037110;28;20029;-52
2023/03/06 07:42:55;;;;;;;39.50;21.23;;;4.40;99.90;;;;;;5041739;28;20040;-53
2023/03/06 07:45:21;;;;;;;45.80;22.02;;;4.50;99.90;;;;;;5041134;28;20436;-52
2023/03/06 07:47:49;;;;;;;44.65;23.90;;;4.70;99.90;;;;;;5040047;28;20080;-53
2023/03/06 07:50:16;;;;;;;40.50;22.55;;;4.70;99.90;;;;;;5038487;28;20033;-53
2023/03/06 07:52:41;;;;;;;41.90;23.98;;;4.60;99.90;;;;;;5036446;28;20492;-52
2023/03/06 07:55:08;;;;;;;43.28;24.88;;;4.70;99.90;;;;;;5040252;28;20045;-52
2023/03/06 07:57:34;;;;;;;46.78;26.48;;;4.70;99.90;;;;;;5038711;28;20075;-53
2023/03/06 08:00:00;;;;;;;48.05;26.95;;;4.80;99.90;;;;;;5040700;28;20075;-53
2023/03/06 08:02:26;;;;;;;55.03;28.67;;;4.70;99.90;;;;;;5039048;28;20145;-52
2023/03/06 08:04:54;;;;;;;50.33;28.85;;;4.60;99.90;;;;;;5038082;28;20543;-51
2023/03/06 08:07:21;;;;;;;54.17;30.27;;;4.70;99.90;;;;;;5038595;28;20136;-54
2023/03/06 08:09:48;;;;;;;54.38;31.02;;;4.80;99.90;;;;;;5022725;28;20033;-53
2023/03/06 08:12:14;;;;;;;57.55;31.33;;;4.80;99.90;;;;;;5045831;28;20052;-53
2023/03/06 08:14:39;;;;;;;63.97;32.70;;;4.70;99.90;;;;;;5039182;28;20034;-53
2023/03/06 08:17:05;;;;;;;60.28;32.63;;;4.80;99.90;;;;;;5040865;28;20383;-53
2023/03/06 08:19:31;;;;;;;58.38;33.17;;;5.00;99.90;;;;;;5037430;28;20028;-53
2023/03/06 08:21:57;;;;;;;61.72;33.00;;;4.80;99.90;;;;;;5054642;28;20396;-53
2023/03/06 08:24:23;;;;;;;62.30;32.95;;;4.80;99.90;;;;;;5042025;28;20036;-53
2023/03/06 08:26:48;;;;;;;62.65;32.45;;;4.80;99.90;;;;;;5057344;28;20452;-53
2023/03/06 08:29:14;;;;;;;58.22;33.47;;;4.80;99.90;;;;;;5053221;28;20026;-53
2023/03/06 08:31:44;;;;;;;58.50;33.30;;;4.80;99.90;;;;;;5048992;28;20112;-52
2023/03/06 08:34:16;;;;;;;65.32;34.05;;;4.70;99.90;;;;;;5053716;28;20098;-50
2023/03/06 08:36:42;;;;;;;60.33;33.22;;;4.70;99.90;;;;;;5058214;28;20586;-52
2023/03/06 08:39:08;;;;;;;62.50;33.28;;;4.80;99.90;;;;;;5058554;28;20120;-53
2023/03/06 08:41:34;;;;;;;60.10;32.90;;;4.80;99.90;;;;;;5049130;28;20291;-53
2023/03/06 08:44:00;;;;;;;52.50;29.42;;;4.70;99.90;;;;;;5057095;28;20641;-51
2023/03/06 08:46:27;;;;;;;56.45;29.63;;;4.50;99.90;;;;;;5049247;28;20037;-51
2023/03/06 08:48:53;;;;;;;54.67;30.63;;;4.30;99.90;;;;;;5039580;28;20132;-52
2023/03/06 08:51:20;;;;;;;57.42;29.88;;;4.50;99.90;;;;;;5056113;28;20116;-52
2023/03/06 08:53:46;;;;;;;54.47;30.50;;;4.50;99.90;;;;;;5056591;28;20071;-53
2023/03/06 08:56:29;;;;;;;55.28;30.88;;;4.40;99.90;;;;;;5061260;28;20031;-53
2023/03/06 08:58:57;;;;;;;58.38;30.40;;;4.50;99.90;;;;;;5054324;28;20113;-50
2023/03/06 09:01:28;;;;;;;60.15;32.35;;;4.40;99.90;;;;;;5055681;28;20424;-51
2023/03/06 09:03:56;;;;;;;60.65;32.20;;;4.50;99.90;;;;;;5042651;28;20068;-49
2023/03/06 09:06:22;;;;;;;59.55;31.58;;;4.50;99.90;;;;;;5039916;28;20519;-53
2023/03/06 09:08:50;;;;;;;65.80;35.10;;;4.40;99.90;;;;;;5048770;28;20060;-49
2023/03/06 09:11:16;;;;;;;71.40;34.45;;;4.50;99.90;;;;;;5042165;28;20460;-51
2023/03/06 09:13:42;;;;;;;63.63;34.30;;;4.70;99.90;;;;;;5043240;28;20056;-49
2023/03/06 09:16:08;;;;;;;65.97;34.75;;;4.60;99.90;;;;;;5052602;28;20119;-49
2023/03/06 09:18:34;;;;;;;67.22;34.38;;;4.60;99.90;;;;;;5054064;28;20454;-51
2023/03/06 09:21:01;;;;;;;62.22;34.90;;;4.60;99.90;;;;;;5039763;28;20140;-49
2023/03/06 09:23:26;;;;;;;61.55;33.90;;;4.60;99.90;;;;;;5035642;28;20039;-50
2023/03/06 09:25:53;;;;;;;61.38;33.10;;;4.60;99.90;;;;;;5048826;28;20036;-53
2023/03/06 09:28:19;;;;;;;64.22;35.08;;;4.60;99.90;;;;;;5058645;28;20464;-52
2023/03/06 09:30:45;;;;;;;64.70;35.85;;;4.70;99.90;;;;;;5059795;28;20367;-52
2023/03/06 09:33:10;;;;;;;66.75;35.45;;;4.90;99.90;;;;;;5052694;28;20064;-51
2023/03/06 09:35:53;;;;;;;69.43;36.30;;;4.90;99.90;;;;;;5060954;28;20605;-52
2023/03/06 09:38:21;;;;;;;65.38;35.03;;;5.00;99.90;;;;;;5059664;28;20124;-49
2023/03/06 09:41:07;;;;;;;61.92;34.03;;;5.10;99.90;;;;;;5054169;28;20036;-52
2023/03/06 09:44:04;;;;;;;60.05;33.17;;;5.10;99.90;;;;;;5031150;28;20666;-49
2023/03/06 09:46:58;;;;;;;53.78;31.33;;;5.30;99.90;;;;;;5027232;28;20052;-51
2023/03/06 09:49:44;;;;;;;60.30;33.15;;;5.10;99.90;;;;;;5037466;28;20085;-52
2023/03/06 09:52:21;;;;;;;54.92;30.65;;;5.30;99.90;;;;;;5035983;28;20362;-49
2023/03/06 09:54:58;;;;;;;54.92;29.70;;;5.10;99.90;;;;;;5045846;28;20309;-52
2023/03/06 09:57:34;;;;;;;51.92;30.30;;;5.30;99.90;;;;;;5037859;28;20044;-48
2023/03/06 10:00:25;;;;;;;54.08;29.38;;;5.40;99.90;;;;;;5040362;28;20410;-52
2023/03/06 10:03:04;;;;;;;54.25;28.65;;;5.60;99.90;;;;;;5020026;28;20167;-52
2023/03/06 10:05:45;;;;;;;49.28;27.90;;;5.60;99.90;;;;;;5032426;28;20041;-50
2023/03/06 10:08:36;;;;;;;48.00;27.50;;;5.60;99.90;;;;;;5028954;28;20041;-51
2023/03/06 10:11:07;;;;;;;40.92;23.75;;;5.70;99.90;;;;;;5024514;28;20033;-53
2023/03/06 10:13:44;;;;;;;41.58;23.92;;;5.70;99.90;;;;;;5022797;28;20048;-48
2023/03/06 10:16:28;;;;;;;38.97;22.98;;;5.80;99.90;;;;;;5034730;28;20037;-47
2023/03/06 10:19:02;;;;;;;39.97;22.85;;;5.60;99.90;;;;;;5019027;28;20045;-49
2023/03/06 10:21:57;;;;;;;40.53;22.52;;;5.30;99.90;;;;;;5025568;28;20256;-50
2023/03/06 10:25:00;;;;;;;41.20;22.85;;;5.50;99.90;;;;;;5043303;28;20044;-52
2023/03/06 10:27:44;;;;;;;29.77;18.05;;;5.80;99.90;;;;;;5042769;28;20151;-54
2023/03/06 10:30:22;;;;;;;40.85;23.67;;;5.80;99.90;;;;;;5051239;28;20040;-50
2023/03/06 10:32:56;;;;;;;36.65;20.58;;;5.80;99.90;;;;;;5057196;28;20485;-54
2023/03/06 10:35:30;;;;;;;32.70;19.15;;;5.90;99.90;;;;;;5046621;28;20048;-50
2023/03/06 10:38:20;;;;;;;32.40;19.58;;;5.80;99.90;;;;;;5042770;28;20128;-53
2023/03/06 10:40:53;;;;;;;33.70;20.20;;;5.80;99.90;;;;;;5040539;28;20058;-51
2023/03/06 10:43:18;;;;;;;31.88;20.08;;;6.00;99.90;;;;;;5035488;28;20203;-52
2023/03/06 10:45:52;;;;;;;32.33;18.98;;;6.00;99.90;;;;;;5046265;28;20131;-55
2023/03/06 10:48:29;;;;;;;32.55;18.75;;;6.20;99.90;;;;;;5041416;28;20033;-52
2023/03/06 10:51:28;;;;;;;27.27;16.73;;;6.20;99.90;;;;;;5049409;28;20122;-50
2023/03/06 10:54:02;;;;;;;29.45;17.77;;;5.70;99.90;;;;;;4991363;28;20040;-52
2023/03/06 10:56:39;;;;;;;27.48;16.58;;;5.70;99.90;;;;;;5031073;28;20065;-50
2023/03/06 10:59:11;;;;;;;33.58;18.27;;;5.90;99.90;;;;;;5026103;28;20061;-52
2023/03/06 11:01:38;;;;;;;32.03;19.20;;;5.90;99.90;;;;;;5029463;28;20067;-53
2023/03/06 11:04:24;;;;;;;30.92;18.40;;;6.00;99.90;;;;;;5024026;28;20060;-54
2023/03/06 11:07:10;;;;;;;25.95;15.68;;;6.00;99.90;;;;;;5019178;28;20050;-52
2023/03/06 11:09:36;;;;;;;21.75;13.55;;;5.90;99.90;;;;;;4996596;28;20100;-52
2023/03/06 11:12:26;;;;;;;24.95;14.45;;;5.70;99.90;;;;;;5030752;28;20084;-51
2023/03/06 11:15:07;;;;;;;24.45;14.40;;;5.60;99.90;;;;;;5014914;28;20034;-51
2023/03/06 11:21:01;;;;;;;28.75;18.05;;;5.70;99.90;;;;;;4981297;28;20029;-53
2023/03/06 11:23:33;;;;;;;32.60;18.90;;;6.00;99.90;;;;;;5023244;28;20566;-52
2023/03/06 11:26:16;;;;;;;29.38;18.98;;;6.30;99.90;;;;;;5018703;28;20084;-52
2023/03/06 11:29:06;;;;;;;37.53;19.70;;;6.50;99.90;;;;;;5018945;28;20125;-51
2023/03/06 11:31:54;;;;;;;28.15;17.63;;;6.70;99.90;;;;;;5039179;28;20543;-52
2023/03/06 11:34:49;;;;;;;25.77;16.65;;;6.80;99.90;;;;;;5045666;28;20033;-52
2023/03/06 11:38:09;;;;;;;26.83;15.95;;;6.70;99.90;;;;;;5038303;28;20044;-51
2023/03/06 11:41:03;;;;;;;27.20;17.50;;;6.90;99.90;;;;;;4927810;29;20122;-53
2023/03/06 11:43:36;;;;;;;22.73;14.70;;;6.80;99.90;;;;;;5040638;28;20121;-52
2023/03/06 11:46:40;;;;;;;22.60;12.55;;;6.70;99.90;;;;;;5043452;28;20048;-52
2023/03/06 11:49:27;;;;;;;14.60;9.65;;;6.40;99.90;;;;;;5031508;28;20120;-51
2023/03/06 11:51:56;;;;;;;17.73;10.57;;;6.20;99.90;;;;;;5041074;28;20060;-52
2023/03/06 11:54:22;;;;;;;18.02;11.20;;;6.20;99.90;;;;;;5042297;28;20050;-53
2023/03/06 11:56:58;;;;;;;17.33;10.93;;;6.20;99.90;;;;;;5048711;28;20045;-52
2023/03/06 11:59:33;;;;;;;40.55;24.92;;;6.20;99.90;;;;;;5041658;28;20127;-53
2023/03/06 12:02:38;;;;;;;23.10;13.93;;;6.30;99.90;;;;;;5036396;28;20361;-53
2023/03/06 12:05:30;;;;;;;19.52;11.27;;;6.30;99.90;;;;;;5043922;28;20044;-52
2023/03/06 12:08:18;;;;;;;16.35;10.60;;;6.20;99.90;;;;;;5042719;28;20098;-53
2023/03/06 12:10:49;;;;;;;13.10;8.48;;;6.30;99.90;;;;;;5029799;28;20226;-52
2023/03/06 12:13:30;;;;;;;15.50;8.90;;;6.40;99.90;;;;;;5024858;28;20368;-52
2023/03/06 12:16:37;;;;;;;12.90;7.28;;;6.60;99.90;;;;;;5032891;28;20469;-53
2023/03/06 12:19:21;;;;;;;9.68;6.00;;;6.90;99.90;;;;;;5024823;28;20748;-53
2023/03/06 12:22:13;;;;;;;10.10;5.63;;;7.00;99.90;;;;;;5026047;28;20497;-53
2023/03/06 12:25:07;;;;;;;6.40;4.00;;;7.20;99.90;;;;;;5023715;28;20503;-53
2023/03/06 12:28:03;;;;;;;7.75;4.65;;;7.30;99.90;;;;;;5033792;28;20401;-53
2023/03/06 12:30:49;;;;;;;7.80;4.63;;;7.50;99.90;;;;;;5043375;28;20116;-53
2023/03/06 12:33:33;;;;;;;5.68;3.78;;;7.50;99.90;;;;;;5044008;28;20025;-53
2023/03/06 12:36:24;;;;;;;7.05;4.00;;;7.40;99.90;;;;;;5044586;28;20033;-53
2023/03/06 12:39:04;;;;;;;7.50;5.13;;;7.00;99.90;;;;;;5019433;28;20650;-53
2023/03/06 12:41:54;;;;;;;9.93;5.43;;;7.20;99.90;;;;;;5008351;28;20038;-53
2023/03/06 12:44:33;;;;;;;9.65;5.40;;;7.40;99.90;;;;;;5033429;28;20527;-54
2023/03/06 12:47:07;;;;;;;12.38;7.50;;;7.50;99.90;;;;;;5016628;28;20046;-53
2023/03/06 12:49:37;;;;;;;9.25;6.07;;;7.40;99.90;;;;;;5024377;28;20045;-53
2023/03/06 12:52:05;;;;;;;7.13;5.50;;;7.60;99.90;;;;;;5043221;28;20467;-54
2023/03/06 12:54:36;;;;;;;11.00;6.65;;;7.70;99.90;;;;;;5043908;28;20048;-53
2023/03/06 12:57:05;;;;;;;10.57;7.03;;;7.80;99.90;;;;;;5042803;28;20744;-53